Time;durP1;ratioP1;P1;durP2;ratioP2;P2;SDS_P1;SDS_P2;PMS_P1;PMS_P2;Temp;Humidity;BMP_temperature;BMP_pressure;BME280_temperature;BME280_humidity;BME280_pressure;Samples;Min_cycle;Max_cycle;Signal;HPM_P1;HPM_P2
2023/07/15 00:00:55;;;;;;;8.50;5.05;;;20.80;99.90;;;;;;5032800;28;20663;-74
2023/07/15 00:03:44;;;;;;;8.88;5.50;;;20.80;99.90;;;;;;5019887;28;20319;-70
2023/07/15 00:06:37;;;;;;;12.27;5.80;;;20.80;99.90;;;;;;5010986;28;20226;-70
2023/07/15 00:09:29;;;;;;;9.02;5.50;;;20.70;99.90;;;;;;5013279;28;20260;-72
2023/07/15 00:12:18;;;;;;;10.95;5.32;;;20.80;99.90;;;;;;5020183;28;20607;-72
2023/07/15 00:15:12;;;;;;;10.32;5.50;;;20.70;99.90;;;;;;5003549;28;20221;-71
2023/07/15 00:18:01;;;;;;;9.63;5.38;;;20.80;99.90;;;;;;5017961;28;20222;-74
2023/07/15 00:20:50;;;;;;;8.43;5.35;;;20.80;99.90;;;;;;5022469;28;20616;-71
2023/07/15 00:23:40;;;;;;;7.35;5.05;;;20.70;99.90;;;;;;5013004;28;20221;-72
2023/07/15 00:26:31;;;;;;;10.23;5.60;;;20.70;99.90;;;;;;5005994;28;20230;-73
2023/07/15 00:29:21;;;;;;;10.77;5.53;;;20.80;99.90;;;;;;5016844;28;20221;-73
2023/07/15 00:32:15;;;;;;;9.45;6.07;;;20.70;99.90;;;;;;5002776;28;20638;-73
2023/07/15 00:35:14;;;;;;;8.63;5.57;;;20.70;99.90;;;;;;5018199;28;20221;-73
2023/07/15 00:38:04;;;;;;;8.75;5.70;;;20.80;99.90;;;;;;5005828;28;20225;-74
2023/07/15 00:40:53;;;;;;;11.43;5.68;;;20.80;99.90;;;;;;5018951;28;20229;-73
2023/07/15 00:43:58;;;;;;;11.48;6.00;;;20.70;99.90;;;;;;5018418;28;20241;-73
2023/07/15 00:47:12;;;;;;;9.70;5.70;;;20.60;99.90;;;;;;5013170;28;20911;-73
2023/07/15 00:50:02;;;;;;;8.18;5.80;;;20.70;99.90;;;;;;5021033;28;20221;-74
2023/07/15 00:52:52;;;;;;;9.95;5.93;;;20.60;99.90;;;;;;4997757;28;20218;-73
2023/07/15 00:55:41;;;;;;;8.20;5.65;;;20.60;99.90;;;;;;5007084;28;20316;-72
2023/07/15 00:58:30;;;;;;;8.07;5.50;;;20.70;99.90;;;;;;5004167;28;20234;-71
2023/07/15 01:01:20;;;;;;;10.07;5.38;;;20.80;99.90;;;;;;5027519;28;20238;-71
2023/07/15 01:04:11;;;;;;;11.70;5.70;;;20.70;99.90;;;;;;5007624;28;20234;-72
2023/07/15 01:07:00;;;;;;;7.88;5.20;;;20.70;99.90;;;;;;5007653;28;20304;-73
2023/07/15 01:09:51;;;;;;;7.55;5.05;;;20.70;99.90;;;;;;5022611;28;20225;-71
2023/07/15 01:12:40;;;;;;;9.55;5.15;;;20.60;99.90;;;;;;4998837;28;20723;-73
2023/07/15 01:15:29;;;;;;;7.47;5.50;;;20.60;99.90;;;;;;5014719;28;20307;-74
2023/07/15 01:18:20;;;;;;;8.45;5.63;;;20.60;99.90;;;;;;5015319;28;20709;-73
2023/07/15 01:21:12;;;;;;;8.23;5.28;;;20.70;99.90;;;;;;5014178;28;20248;-74
2023/07/15 01:24:06;;;;;;;9.75;5.18;;;20.80;99.90;;;;;;5010699;28;20720;-73
2023/07/15 01:27:07;;;;;;;11.63;5.38;;;20.80;99.90;;;;;;5001936;28;20233;-74
2023/07/15 01:29:56;;;;;;;8.07;5.30;;;20.60;99.90;;;;;;5012390;28;20390;-74
2023/07/15 01:32:45;;;;;;;8.60;5.45;;;20.70;99.90;;;;;;5001235;28;20234;-73
2023/07/15 01:35:34;;;;;;;6.80;5.10;;;20.60;99.90;;;;;;5019476;28;20332;-75
2023/07/15 01:38:23;;;;;;;7.55;5.57;;;20.70;99.90;;;;;;5012126;28;20221;-74
2023/07/15 01:41:14;;;;;;;9.63;5.45;;;20.70;99.90;;;;;;5006035;28;20340;-73
2023/07/15 01:44:05;;;;;;;12.07;5.32;;;20.70;99.90;;;;;;5018530;28;20315;-73
2023/07/15 01:46:54;;;;;;;7.72;5.57;;;20.70;99.90;;;;;;5006200;28;20236;-73
2023/07/15 01:49:43;;;;;;;7.47;5.43;;;20.70;99.90;;;;;;5003925;28;20233;-73
2023/07/15 01:52:32;;;;;;;7.97;5.45;;;20.70;99.90;;;;;;5016177;28;20238;-74
2023/07/15 01:55:21;;;;;;;6.55;5.60;;;20.60;99.90;;;;;;5015788;28;20391;-73
2023/07/15 01:58:16;;;;;;;8.95;5.80;;;20.50;99.90;;;;;;5013013;28;20227;-71
2023/07/15 02:01:06;;;;;;;9.95;6.47;;;20.60;99.90;;;;;;5004176;28;20312;-73
2023/07/15 02:03:55;;;;;;;9.43;5.78;;;20.40;99.90;;;;;;5017604;28;20222;-71
2023/07/15 02:06:45;;;;;;;11.68;6.40;;;20.30;99.90;;;;;;5034556;28;20237;-72
2023/07/15 02:09:34;;;;;;;9.38;6.97;;;20.00;99.90;;;;;;5021202;28;20244;-72
2023/07/15 02:12:23;;;;;;;11.07;6.97;;;19.90;99.90;;;;;;5009899;28;20232;-74
2023/07/15 02:15:13;;;;;;;8.38;6.90;;;20.00;99.90;;;;;;5018745;28;20324;-74
2023/07/15 02:18:02;;;;;;;8.45;6.50;;;19.90;99.90;;;;;;5007577;28;20755;-73
2023/07/15 02:20:51;;;;;;;9.45;6.65;;;20.10;99.90;;;;;;5007134;28;20995;-73
2023/07/15 02:23:40;;;;;;;10.45;7.07;;;20.20;99.90;;;;;;5018073;28;21027;-73
2023/07/15 02:26:29;;;;;;;13.52;7.70;;;20.10;99.90;;;;;;5029341;28;20233;-74
2023/07/15 02:29:19;;;;;;;10.93;7.05;;;20.00;99.90;;;;;;5029198;28;20308;-73
2023/07/15 02:32:10;;;;;;;11.52;6.50;;;19.70;99.90;;;;;;5008162;28;20229;-74
2023/07/15 02:34:59;;;;;;;11.00;7.05;;;19.80;99.90;;;;;;5010360;28;20229;-72
2023/07/15 02:37:48;;;;;;;10.27;6.82;;;19.80;99.90;;;;;;5008746;28;20697;-71
2023/07/15 02:40:38;;;;;;;10.35;6.80;;;19.70;99.90;;;;;;5002940;28;20229;-73
2023/07/15 02:43:27;;;;;;;15.10;7.50;;;19.80;99.90;;;;;;5019137;28;20332;-72
2023/07/15 02:46:16;;;;;;;13.07;7.60;;;19.90;99.90;;;;;;5002690;28;20274;-74
2023/07/15 02:49:08;;;;;;;10.70;7.93;;;19.80;99.90;;;;;;5008764;28;20327;-74
2023/07/15 02:51:58;;;;;;;10.50;7.15;;;19.90;99.90;;;;;;5015454;28;20225;-73
2023/07/15 02:54:47;;;;;;;11.32;7.75;;;19.70;99.90;;;;;;5019617;28;20230;-73
2023/07/15 02:57:36;;;;;;;12.57;7.90;;;19.60;99.90;;;;;;5020648;28;20229;-73
2023/07/15 03:00:26;;;;;;;11.25;6.82;;;19.80;99.90;;;;;;5016010;28;20221;-73
2023/07/15 03:03:15;;;;;;;13.00;8.15;;;19.90;99.90;;;;;;5003642;28;20214;-73
2023/07/15 03:06:05;;;;;;;12.27;7.40;;;19.90;99.90;;;;;;5016192;28;20241;-73
2023/07/15 03:08:54;;;;;;;10.82;7.75;;;19.90;99.90;;;;;;5009902;28;20229;-69
2023/07/15 03:11:45;;;;;;;12.30;8.02;;;20.10;99.90;;;;;;5020855;28;20244;-73
2023/07/15 03:14:34;;;;;;;11.13;7.65;;;20.00;99.90;;;;;;5013177;28;20218;-74
2023/07/15 03:17:23;;;;;;;12.07;8.35;;;20.00;99.90;;;;;;5005669;28;20656;-73
2023/07/15 03:20:19;;;;;;;13.25;8.15;;;19.90;99.90;;;;;;5019618;28;20465;-73
2023/07/15 03:23:11;;;;;;;10.95;7.88;;;19.80;99.90;;;;;;5008287;28;20227;-73
2023/07/15 03:25:59;;;;;;;15.75;8.23;;;19.80;99.90;;;;;;5007589;28;20228;-73
2023/07/15 03:28:48;;;;;;;19.02;8.65;;;19.70;99.90;;;;;;5022863;28;20653;-73
2023/07/15 03:31:37;;;;;;;12.48;8.50;;;19.70;99.90;;;;;;5024715;28;20283;-74
2023/07/15 03:34:26;;;;;;;13.10;8.68;;;19.70;99.90;;;;;;5005019;28;20218;-74
2023/07/15 03:37:15;;;;;;;11.45;8.50;;;19.70;99.90;;;;;;5002944;28;20225;-74
2023/07/15 03:40:08;;;;;;;12.57;8.43;;;19.60;99.90;;;;;;5021456;28;20217;-74
2023/07/15 03:42:57;;;;;;;14.07;8.07;;;19.80;99.90;;;;;;5007997;28;20217;-74
2023/07/15 03:45:46;;;;;;;12.65;8.07;;;19.60;99.90;;;;;;5011761;28;20299;-74
2023/07/15 03:48:35;;;;;;;13.93;8.20;;;19.60;99.90;;;;;;4992415;28;21122;-74
2023/07/15 03:51:24;;;;;;;10.73;8.30;;;19.50;99.90;;;;;;5013505;28;20325;-74
2023/07/15 03:54:13;;;;;;;12.82;8.25;;;19.50;99.90;;;;;;5011175;28;20297;-72
2023/07/15 03:57:03;;;;;;;9.77;8.23;;;19.60;99.90;;;;;;5015737;28;20303;-72
2023/07/15 03:59:52;;;;;;;12.25;8.68;;;19.70;99.90;;;;;;5017552;28;20249;-72
2023/07/15 04:02:44;;;;;;;13.13;8.73;;;19.80;99.90;;;;;;5015032;28;20320;-72
2023/07/15 04:05:34;;;;;;;10.55;8.40;;;19.80;99.90;;;;;;4993618;28;20230;-72
2023/07/15 04:08:23;;;;;;;12.07;8.25;;;19.90;99.90;;;;;;5018631;28;20224;-71
2023/07/15 04:11:12;;;;;;;12.48;8.27;;;19.90;99.90;;;;;;5016475;28;20226;-75
2023/07/15 04:14:02;;;;;;;12.32;8.75;;;19.60;99.90;;;;;;5003573;28;20254;-74
2023/07/15 04:16:51;;;;;;;13.02;8.75;;;19.40;99.90;;;;;;5018976;28;20233;-73
2023/07/15 04:19:40;;;;;;;12.18;8.63;;;19.50;99.90;;;;;;5014158;28;20222;-75
2023/07/15 04:22:29;;;;;;;12.05;8.70;;;19.60;99.90;;;;;;5003524;28;20268;-72
2023/07/15 04:25:19;;;;;;;11.98;8.35;;;19.60;99.90;;;;;;5018293;28;20760;-74
2023/07/15 04:28:08;;;;;;;19.08;8.32;;;19.40;99.90;;;;;;5024192;28;20786;-73
2023/07/15 04:30:58;;;;;;;12.27;8.80;;;19.80;99.90;;;;;;5006415;28;20704;-73
2023/07/15 04:33:48;;;;;;;11.15;8.57;;;19.90;99.90;;;;;;5020140;28;20700;-73
2023/07/15 04:36:37;;;;;;;12.90;8.77;;;20.00;99.90;;;;;;5014588;28;20226;-73
2023/07/15 04:39:27;;;;;;;12.70;8.88;;;20.10;99.90;;;;;;5020894;28;20693;-73
2023/07/15 04:42:16;;;;;;;10.23;8.85;;;20.00;99.90;;;;;;5016557;28;20742;-72
2023/07/15 04:45:06;;;;;;;9.90;8.07;;;20.10;99.90;;;;;;5018411;28;20304;-72
2023/07/15 04:47:57;;;;;;;11.90;8.35;;;20.00;99.90;;;;;;5005661;28;20230;-71
2023/07/15 04:50:47;;;;;;;11.95;8.25;;;19.90;99.90;;;;;;5011881;28;20913;-74
2023/07/15 04:53:42;;;;;;;14.45;8.32;;;19.90;99.90;;;;;;5015296;28;20236;-73
2023/07/15 04:56:32;;;;;;;14.30;8.68;;;19.80;99.90;;;;;;5006100;28;20597;-73
2023/07/15 04:59:22;;;;;;;11.35;8.15;;;19.80;99.90;;;;;;5004252;28;20220;-73
2023/07/15 05:02:11;;;;;;;14.52;8.70;;;20.10;99.90;;;;;;5010923;28;20694;-72
2023/07/15 05:05:02;;;;;;;12.75;8.20;;;20.20;99.90;;;;;;5013690;28;20222;-73
2023/07/15 05:07:54;;;;;;;11.35;7.95;;;20.20;99.90;;;;;;5008567;28;20729;-73
2023/07/15 05:10:48;;;;;;;10.05;7.47;;;20.20;99.90;;;;;;5020370;28;20229;-73
2023/07/15 05:13:37;;;;;;;12.73;8.00;;;20.20;99.90;;;;;;5014452;28;20225;-73
2023/07/15 05:16:26;;;;;;;10.13;7.93;;;20.40;99.90;;;;;;5012078;28;20353;-73
2023/07/15 05:19:14;;;;;;;9.73;8.10;;;20.50;99.90;;;;;;5019578;28;20221;-74
2023/07/15 05:22:06;;;;;;;10.27;7.35;;;20.60;99.90;;;;;;5000236;28;20253;-75
2023/07/15 05:24:55;;;;;;;9.30;7.65;;;20.90;99.90;;;;;;5014710;28;20333;-74
2023/07/15 05:27:44;;;;;;;8.85;7.43;;;21.20;99.90;;;;;;5015469;28;20307;-74
2023/07/15 05:30:36;;;;;;;10.73;7.75;;;21.50;99.90;;;;;;5010376;28;20234;-74
2023/07/15 05:33:25;;;;;;;9.85;6.82;;;21.50;99.90;;;;;;4996396;28;21030;-74
2023/07/15 05:36:14;;;;;;;9.02;6.40;;;21.60;99.90;;;;;;4986212;28;20222;-74
2023/07/15 05:39:04;;;;;;;8.07;6.40;;;21.70;99.90;;;;;;5017992;28;20230;-73
2023/07/15 05:41:53;;;;;;;11.60;6.60;;;21.90;99.90;;;;;;5020556;28;20399;-73
2023/07/15 05:44:42;;;;;;;11.75;6.50;;;22.10;99.90;;;;;;5007694;28;20362;-72
2023/07/15 05:47:31;;;;;;;11.68;5.97;;;22.50;99.90;;;;;;5016619;28;20221;-72
2023/07/15 05:50:20;;;;;;;12.13;6.40;;;22.70;99.90;;;;;;5019705;28;20245;-71
2023/07/15 05:53:12;;;;;;;8.55;5.57;;;22.80;99.90;;;;;;5028866;28;20230;-71
2023/07/15 05:56:03;;;;;;;6.45;5.70;;;22.90;99.90;;;;;;5015237;28;20233;-72
2023/07/15 05:58:52;;;;;;;9.45;5.97;;;22.80;99.90;;;;;;5009480;28;20213;-72
2023/07/15 06:01:42;;;;;;;7.65;5.50;;;22.60;99.90;;;;;;5007088;28;20233;-73
2023/07/15 06:04:31;;;;;;;8.93;5.72;;;22.70;99.90;;;;;;5019351;28;20359;-72
2023/07/15 06:07:20;;;;;;;8.05;5.63;;;22.80;99.90;;;;;;5014686;28;20217;-72
2023/07/15 06:10:09;;;;;;;9.07;5.40;;;23.00;99.90;;;;;;5019591;28;20745;-72
2023/07/15 06:13:00;;;;;;;6.35;5.30;;;23.60;99.90;;;;;;5013593;28;20224;-74
2023/07/15 06:15:50;;;;;;;6.70;5.00;;;24.00;99.90;;;;;;5015541;28;20233;-75
2023/07/15 06:18:39;;;;;;;7.18;5.25;;;23.70;99.90;;;;;;5022111;28;20308;-72
2023/07/15 06:21:28;;;;;;;8.15;4.95;;;23.50;99.90;;;;;;5024041;28;20213;-72
2023/07/15 06:24:17;;;;;;;7.85;5.18;;;23.50;99.90;;;;;;5017191;28;20238;-73
2023/07/15 06:27:07;;;;;;;6.20;5.00;;;23.60;99.90;;;;;;5015709;28;20270;-76
2023/07/15 06:29:58;;;;;;;9.13;4.82;;;23.70;99.90;;;;;;5017242;28;20230;-72
2023/07/15 06:32:47;;;;;;;8.55;4.97;;;23.90;99.90;;;;;;5019151;28;20221;-75
2023/07/15 06:35:35;;;;;;;7.10;5.28;;;24.30;99.90;;;;;;5009874;28;20225;-74
2023/07/15 06:38:28;;;;;;;6.78;4.88;;;25.70;99.50;;;;;;5023528;28;20229;-73
2023/07/15 06:41:17;;;;;;;6.32;4.70;;;27.60;97.00;;;;;;5020239;28;20220;-75
2023/07/15 06:44:06;;;;;;;5.75;4.70;;;28.20;94.50;;;;;;5001490;28;20229;-71
2023/07/15 06:46:57;;;;;;;6.63;5.05;;;27.40;95.00;;;;;;5013643;28;20296;-75
2023/07/15 06:49:46;;;;;;;8.13;5.20;;;26.60;95.00;;;;;;5016337;28;20845;-74
2023/07/15 06:52:35;;;;;;;7.40;5.00;;;26.00;95.30;;;;;;5021775;28;20226;-75
2023/07/15 06:55:24;;;;;;;6.60;5.18;;;25.50;96.40;;;;;;5006898;28;20252;-74
2023/07/15 06:58:13;;;;;;;6.07;5.00;;;25.50;97.20;;;;;;5008920;28;20706;-76
2023/07/15 07:01:02;;;;;;;5.63;4.50;;;25.50;96.60;;;;;;5016047;28;20225;-75
2023/07/15 07:03:54;;;;;;;6.40;4.82;;;25.40;96.50;;;;;;5035610;28;20795;-77
2023/07/15 07:06:45;;;;;;;6.97;4.63;;;25.40;97.50;;;;;;5012939;28;20333;-73
2023/07/15 07:09:34;;;;;;;7.22;4.55;;;25.50;96.70;;;;;;5008983;28;20237;-75
2023/07/15 07:12:23;;;;;;;5.20;4.53;;;25.50;96.20;;;;;;5020868;28;20233;-74
2023/07/15 07:15:12;;;;;;;6.45;4.82;;;25.70;97.40;;;;;;5017608;28;20226;-74
2023/07/15 07:18:02;;;;;;;6.07;4.70;;;25.90;97.10;;;;;;5005528;28;20225;-71
2023/07/15 07:20:57;;;;;;;6.40;4.95;;;26.20;97.90;;;;;;5005607;28;20278;-73
2023/07/15 07:23:52;;;;;;;4.47;3.83;;;26.30;95.90;;;;;;5015964;28;20230;-73
2023/07/15 07:26:41;;;;;;;7.03;4.30;;;26.30;95.80;;;;;;5012648;28;20240;-73
2023/07/15 07:29:30;;;;;;;5.40;3.80;;;26.50;95.60;;;;;;5028451;28;20233;-73
2023/07/15 07:32:19;;;;;;;6.47;4.35;;;26.70;95.30;;;;;;5013414;28;20329;-74
2023/07/15 07:35:08;;;;;;;5.60;3.78;;;27.00;94.40;;;;;;5011037;28;20226;-75
2023/07/15 07:37:59;;;;;;;5.20;3.78;;;27.30;94.00;;;;;;5020567;28;20283;-73
2023/07/15 07:40:48;;;;;;;5.75;4.28;;;27.80;95.90;;;;;;5029587;28;20222;-71
2023/07/15 07:43:38;;;;;;;5.68;3.70;;;28.20;93.30;;;;;;5011847;28;20918;-75
2023/07/15 07:46:27;;;;;;;8.13;4.43;;;28.00;93.10;;;;;;5014480;28;20323;-73
2023/07/15 07:49:17;;;;;;;5.47;3.88;;;27.70;93.30;;;;;;5033483;28;20264;-74
2023/07/15 07:52:06;;;;;;;4.90;4.07;;;28.30;92.80;;;;;;5014349;28;20229;-75
2023/07/15 07:54:59;;;;;;;5.90;3.78;;;29.00;93.40;;;;;;5021740;28;20229;-75
2023/07/15 07:57:47;;;;;;;6.97;3.78;;;29.40;90.80;;;;;;5023127;28;20221;-72
2023/07/15 08:00:36;;;;;;;5.25;4.10;;;29.70;90.00;;;;;;5013188;28;20775;-77
2023/07/15 08:03:25;;;;;;;7.30;4.30;;;29.90;90.30;;;;;;5016937;28;20227;-74
2023/07/15 08:06:14;;;;;;;5.40;3.72;;;30.00;90.00;;;;;;5014775;28;20826;-75
2023/07/15 08:09:04;;;;;;;5.68;3.72;;;30.00;88.30;;;;;;5019060;28;20300;-76
2023/07/15 08:11:55;;;;;;;5.88;4.15;;;30.00;88.40;;;;;;5018736;28;20233;-75
2023/07/15 08:14:44;;;;;;;6.80;4.13;;;30.30;88.70;;;;;;5017644;28;20588;-77
2023/07/15 08:17:33;;;;;;;6.47;3.75;;;30.70;87.30;;;;;;5013868;28;20261;-72
2023/07/15 08:20:22;;;;;;;5.30;3.38;;;30.90;83.50;;;;;;5016724;28;20255;-74
2023/07/15 08:23:11;;;;;;;3.95;3.10;;;31.00;82.30;;;;;;5030844;28;20225;-72
2023/07/15 08:26:01;;;;;;;6.35;3.30;;;31.10;84.40;;;;;;5001226;28;20225;-73
2023/07/15 08:28:51;;;;;;;7.43;3.55;;;31.10;81.20;;;;;;5006876;28;20297;-74
2023/07/15 08:31:40;;;;;;;5.63;3.38;;;31.40;80.50;;;;;;5019578;28;20224;-71
2023/07/15 08:34:29;;;;;;;5.72;3.80;;;31.60;79.40;;;;;;5019654;28;20304;-71
2023/07/15 08:37:18;;;;;;;4.05;3.40;;;31.90;80.30;;;;;;5011007;28;20221;-73
2023/07/15 08:40:10;;;;;;;4.38;3.08;;;31.70;76.30;;;;;;5012983;28;20236;-71
2023/07/15 08:42:59;;;;;;;8.13;3.40;;;31.90;78.40;;;;;;5031100;28;20708;-72
2023/07/15 08:45:50;;;;;;;4.05;3.50;;;32.10;77.30;;;;;;4989367;28;20349;-71
2023/07/15 08:48:40;;;;;;;5.15;3.25;;;32.30;75.70;;;;;;4977948;28;20218;-73
2023/07/15 08:51:32;;;;;;;4.30;3.15;;;32.40;78.70;;;;;;4993310;28;20313;-72
2023/07/15 08:54:22;;;;;;;5.45;3.30;;;32.20;75.50;;;;;;4994398;28;20680;-72
2023/07/15 08:57:12;;;;;;;4.20;3.00;;;32.70;73.50;;;;;;4973745;28;20233;-71
2023/07/15 09:00:04;;;;;;;6.68;3.30;;;32.90;71.70;;;;;;4985360;28;20230;-71
2023/07/15 09:02:55;;;;;;;5.18;3.50;;;33.00;73.90;;;;;;4982985;28;20218;-72
2023/07/15 09:05:44;;;;;;;5.70;3.25;;;33.20;76.40;;;;;;4981118;28;20598;-72
2023/07/15 09:08:34;;;;;;;3.85;2.88;;;32.90;74.00;;;;;;4987725;28;20230;-72
2023/07/15 09:11:23;;;;;;;8.20;3.20;;;33.50;75.20;;;;;;4983086;28;20222;-72
2023/07/15 09:14:15;;;;;;;5.32;3.15;;;33.60;74.80;;;;;;4995608;28;20603;-73
2023/07/15 09:17:05;;;;;;;6.32;3.17;;;33.90;69.20;;;;;;4984063;28;20229;-73
2023/07/15 09:19:55;;;;;;;5.28;3.13;;;33.80;71.30;;;;;;4982639;28;20233;-72
2023/07/15 09:22:45;;;;;;;8.93;3.10;;;33.80;67.60;;;;;;4981555;28;20222;-72
2023/07/15 09:25:35;;;;;;;3.92;2.80;;;33.70;67.40;;;;;;4982105;28;20309;-74
2023/07/15 09:28:24;;;;;;;4.40;3.17;;;33.60;68.30;;;;;;4980643;28;20729;-72
2023/07/15 09:31:23;;;;;;;4.85;3.13;;;33.80;70.00;;;;;;4979648;28;20323;-73
2023/07/15 09:34:13;;;;;;;5.35;2.90;;;34.40;70.50;;;;;;4982738;28;20210;-72
2023/07/15 09:37:03;;;;;;;3.53;2.80;;;34.90;67.80;;;;;;4991402;28;20221;-72
2023/07/15 09:39:57;;;;;;;8.15;3.08;;;35.20;64.80;;;;;;4979401;28;20210;-73
2023/07/15 09:42:53;;;;;;;6.63;2.88;;;34.70;66.00;;;;;;4981534;28;20691;-73
2023/07/15 09:45:42;;;;;;;3.30;3.00;;;35.00;65.00;;;;;;5011038;28;20332;-73
2023/07/15 09:48:34;;;;;;;4.13;2.97;;;35.40;66.20;;;;;;5020708;28;20236;-72
2023/07/15 09:51:25;;;;;;;3.50;2.80;;;36.30;63.70;;;;;;5029562;28;20340;-72
2023/07/15 09:54:15;;;;;;;7.07;2.60;;;36.60;61.60;;;;;;5012137;28;20225;-72
2023/07/15 09:57:08;;;;;;;5.05;2.92;;;37.10;62.50;;;;;;5017479;28;20219;-72
2023/07/15 09:59:57;;;;;;;5.32;2.88;;;38.00;60.00;;;;;;5013629;28;20220;-73
2023/07/15 10:02:54;;;;;;;6.18;3.03;;;37.90;60.80;;;;;;5010093;28;20274;-73
2023/07/15 10:05:43;;;;;;;4.72;2.67;;;39.00;59.10;;;;;;5011450;28;20222;-72
2023/07/15 10:08:34;;;;;;;6.65;3.30;;;38.30;58.50;;;;;;5013343;28;20225;-74
2023/07/15 10:11:24;;;;;;;4.55;2.90;;;39.90;58.50;;;;;;5027571;28;20308;-72
2023/07/15 10:14:14;;;;;;;6.05;3.15;;;39.70;55.10;;;;;;5007540;28;20222;-72
2023/07/15 10:17:10;;;;;;;5.93;3.15;;;39.80;55.90;;;;;;5016168;28;20229;-73
2023/07/15 10:20:04;;;;;;;5.47;3.10;;;40.70;56.40;;;;;;5019910;28;20240;-72
2023/07/15 10:22:54;;;;;;;6.50;3.30;;;39.90;53.70;;;;;;5016641;28;20217;-73
2023/07/15 10:25:43;;;;;;;8.73;2.97;;;40.50;54.50;;;;;;5008815;28;20224;-73
2023/07/15 10:28:37;;;;;;;7.03;2.78;;;40.20;53.80;;;;;;5010829;28;20223;-72
2023/07/15 10:31:26;;;;;;;5.38;3.08;;;40.90;55.10;;;;;;5025534;28;20637;-73
2023/07/15 10:34:16;;;;;;;7.38;3.40;;;41.30;53.60;;;;;;5023947;28;20225;-73
2023/07/15 10:37:11;;;;;;;5.03;3.17;;;41.90;53.50;;;;;;5004162;28;20236;-73
2023/07/15 10:40:00;;;;;;;3.47;2.90;;;42.60;53.70;;;;;;5010218;28;20231;-73
2023/07/15 10:43:06;;;;;;;4.47;2.70;;;43.70;51.40;;;;;;5022694;28;20228;-71
2023/07/15 10:46:02;;;;;;;3.25;2.90;;;44.10;50.90;;;;;;5020757;28;20446;-71
2023/07/15 10:48:51;;;;;;;6.70;3.10;;;44.30;49.00;;;;;;5014094;28;20256;-71
2023/07/15 10:51:40;;;;;;;3.00;2.80;;;;;;;;;;5016495;28;20232;-72
2023/07/15 10:54:31;;;;;;;7.38;3.30;;;44.80;50.00;;;;;;5015653;28;20960;-73
2023/07/15 10:57:20;;;;;;;4.30;2.80;;;45.00;48.30;;;;;;5016732;28;20227;-72
2023/07/15 11:00:10;;;;;;;3.92;2.90;;;45.80;48.30;;;;;;5023115;28;20700;-72
2023/07/15 11:03:00;;;;;;;3.20;2.90;;;45.80;47.30;;;;;;5017510;28;20218;-71
2023/07/15 11:05:50;;;;;;;3.50;3.15;;;46.70;47.70;;;;;;5019934;28;20229;-72
2023/07/15 11:08:40;;;;;;;6.45;5.00;;;45.60;46.30;;;;;;5010445;28;20233;-72
2023/07/15 11:11:31;;;;;;;5.15;2.53;;;46.20;44.80;;;;;;5005222;28;20355;-73
2023/07/15 11:14:21;;;;;;;3.95;2.60;;;46.20;46.30;;;;;;5008532;28;20228;-72
2023/07/15 11:17:14;;;;;;;4.13;2.60;;;46.90;44.40;;;;;;5006293;28;20237;-72
2023/07/15 11:20:14;;;;;;;6.35;3.03;;;47.70;45.40;;;;;;5021780;28;20316;-72
2023/07/15 11:23:03;;;;;;;5.60;2.90;;;47.20;43.00;;;;;;5000985;28;20236;-72
2023/07/15 11:25:52;;;;;;;5.38;2.90;;;45.90;43.80;;;;;;4998463;28;20217;-72
2023/07/15 11:28:49;;;;;;;2.83;2.53;;;46.20;43.90;;;;;;5026473;28;20219;-73
2023/07/15 11:31:42;;;;;;;3.83;2.35;;;46.40;44.00;;;;;;5015267;28;20233;-72
2023/07/15 11:34:31;;;;;;;2.83;2.60;;;44.80;43.00;;;;;;5033822;28;20232;-73
2023/07/15 11:37:22;;;;;;;5.28;2.75;;;45.70;44.40;;;;;;5014241;28;20328;-73
2023/07/15 11:40:15;;;;;;;4.80;2.33;;;46.80;44.80;;;;;;5012067;28;20415;-73
2023/07/15 11:43:06;;;;;;;2.88;2.42;;;48.50;43.70;;;;;;5011802;28;20233;-72
2023/07/15 11:45:56;;;;;;;4.80;2.35;;;49.50;41.40;;;;;;5016191;28;20229;-73
2023/07/15 11:48:47;;;;;;;4.50;2.70;;;49.70;40.80;;;;;;5033002;28;20237;-72
2023/07/15 11:51:40;;;;;;;4.28;2.22;;;50.10;39.20;;;;;;5016119;28;20306;-73
2023/07/15 11:54:36;;;;;;;6.00;2.22;;;50.70;38.90;;;;;;5002191;28;20312;-72
2023/07/15 11:57:26;;;;;;;4.72;2.30;;;50.10;39.60;;;;;;5026378;28;20881;-75
2023/07/15 12:00:32;;;;;;;3.08;2.22;;;50.70;40.20;;;;;;5008116;28;20232;-72
2023/07/15 12:03:35;;;;;;;2.90;2.45;;;48.00;38.70;;;;;;5019357;28;20234;-72
2023/07/15 12:06:25;;;;;;;3.00;2.42;;;45.60;41.80;;;;;;5004991;28;20225;-72
2023/07/15 12:09:15;;;;;;;3.38;2.58;;;44.10;42.20;;;;;;5017846;28;20267;-72
2023/07/15 12:12:08;;;;;;;3.28;2.60;;;44.20;42.50;;;;;;5000205;28;20220;-72
2023/07/15 12:14:57;;;;;;;6.22;3.00;;;44.40;44.60;;;;;;5014124;28;20309;-70
2023/07/15 12:17:45;;;;;;;6.32;2.65;;;45.90;40.80;;;;;;5015807;28;20247;-73
2023/07/15 12:20:34;;;;;;;5.30;2.22;;;48.20;39.60;;;;;;5017985;28;20692;-72
2023/07/15 12:23:23;;;;;;;2.55;2.35;;;45.20;42.00;;;;;;5017089;28;20220;-72
2023/07/15 12:26:12;;;;;;;4.50;2.67;;;44.00;40.30;;;;;;5012717;28;20225;-72
2023/07/15 12:29:03;;;;;;;6.13;2.58;;;47.60;41.50;;;;;;5005701;28;20228;-72
2023/07/15 12:31:52;;;;;;;3.30;2.80;;;50.20;38.60;;;;;;5002466;28;20225;-72
2023/07/15 12:34:41;;;;;;;3.05;2.33;;;51.80;37.50;;;;;;5015531;28;20372;-73
2023/07/15 12:37:30;;;;;;;3.47;2.65;;;;;;;;;;5019551;28;20224;-74
2023/07/15 12:40:20;;;;;;;5.35;2.42;;;53.10;35.60;;;;;;5021300;28;20236;-73
2023/07/15 12:43:08;;;;;;;2.58;2.17;;;53.30;36.30;;;;;;5004437;28;20225;-74
2023/07/15 12:45:59;;;;;;;5.00;2.88;;;54.00;34.60;;;;;;5021358;28;20273;-73
2023/07/15 12:48:51;;;;;;;4.60;2.50;;;52.50;34.80;;;;;;5002400;28;20369;-73
2023/07/15 12:51:42;;;;;;;6.45;2.03;;;49.60;35.30;;;;;;4998289;28;20703;-73
2023/07/15 12:54:30;;;;;;;4.20;2.13;;;48.40;35.70;;;;;;4992459;28;20381;-74
2023/07/15 12:57:20;;;;;;;4.47;2.42;;;45.60;36.70;;;;;;4994013;28;20348;-72
2023/07/15 13:00:11;;;;;;;4.32;2.30;;;41.80;39.90;;;;;;5015482;28;20232;-72
2023/07/15 13:03:03;;;;;;;4.15;2.60;;;39.30;41.80;;;;;;5014058;28;20285;-70
2023/07/15 13:05:52;;;;;;;5.00;2.30;;;37.80;44.20;;;;;;5007832;28;20221;-72
2023/07/15 13:08:44;;;;;;;5.55;2.80;;;36.80;45.70;;;;;;5018718;28;20253;-72
2023/07/15 13:11:34;;;;;;;5.85;2.95;;;36.00;47.70;;;;;;4999156;28;20588;-73
2023/07/15 13:14:22;;;;;;;3.63;2.85;;;35.60;49.10;;;;;;4990241;28;20390;-72
2023/07/15 13:17:11;;;;;;;3.55;2.50;;;35.40;48.20;;;;;;5007865;28;20236;-72
2023/07/15 13:20:02;;;;;;;4.93;2.83;;;35.00;49.60;;;;;;4992843;28;20216;-72
2023/07/15 13:22:53;;;;;;;7.53;2.75;;;34.90;49.70;;;;;;4996738;28;20264;-72
2023/07/15 13:25:42;;;;;;;7.78;3.35;;;34.60;52.30;;;;;;4997072;28;20965;-72
2023/07/15 13:28:30;;;;;;;6.20;3.10;;;34.50;51.10;;;;;;5002386;28;20221;-73
2023/07/15 13:31:19;;;;;;;3.22;2.92;;;34.20;50.60;;;;;;5000097;28;20308;-72
2023/07/15 13:34:08;;;;;;;4.10;2.60;;;34.10;50.70;;;;;;5010706;28;20244;-71
2023/07/15 13:36:59;;;;;;;4.28;2.83;;;34.00;51.00;;;;;;5003972;28;20218;-72
2023/07/15 13:39:48;;;;;;;5.85;3.25;;;33.70;52.20;;;;;;4998639;28;20225;-72
2023/07/15 13:42:37;;;;;;;3.85;3.17;;;33.60;52.70;;;;;;5002017;28;20465;-72
2023/07/15 13:45:26;;;;;;;4.13;3.03;;;33.50;53.30;;;;;;5007089;28;20226;-73
2023/07/15 13:48:15;;;;;;;6.55;2.83;;;33.40;53.50;;;;;;4994615;28;20221;-72
2023/07/15 13:51:07;;;;;;;3.45;2.97;;;33.30;53.50;;;;;;5011079;28;20565;-71
2023/07/15 13:53:57;;;;;;;4.70;2.90;;;33.00;53.80;;;;;;5023605;28;20222;-70
2023/07/15 13:56:47;;;;;;;4.55;3.00;;;32.70;54.40;;;;;;5014758;28;20811;-70
2023/07/15 13:59:36;;;;;;;8.32;3.10;;;32.80;54.30;;;;;;4998737;28;20225;-70
2023/07/15 14:02:25;;;;;;;7.13;3.35;;;32.70;55.30;;;;;;5007802;28;20277;-72
2023/07/15 14:05:13;;;;;;;4.28;3.33;;;32.70;55.30;;;;;;5003056;28;20328;-72
2023/07/15 14:08:03;;;;;;;5.30;3.38;;;32.70;55.50;;;;;;5003331;28;20605;-72
2023/07/15 14:10:53;;;;;;;3.90;3.45;;;32.50;55.60;;;;;;4997664;28;20225;-72
2023/07/15 14:13:45;;;;;;;5.88;3.55;;;32.40;57.00;;;;;;4994650;28;20225;-72
2023/07/15 14:16:34;;;;;;;5.00;3.17;;;32.50;56.60;;;;;;5006378;28;20899;-69
2023/07/15 14:19:24;;;;;;;4.63;3.33;;;32.40;56.20;;;;;;4997332;28;20554;-71
2023/07/15 14:22:12;;;;;;;5.88;3.00;;;32.40;56.80;;;;;;4992114;28;20305;-73
2023/07/15 14:25:08;;;;;;;7.65;4.72;;;32.40;56.40;;;;;;5000789;28;20229;-72
2023/07/15 14:27:59;;;;;;;3.17;2.92;;;32.30;57.30;;;;;;4992324;28;20257;-72
2023/07/15 14:30:47;;;;;;;4.68;3.22;;;32.40;56.20;;;;;;5003426;28;20237;-73
2023/07/15 14:33:36;;;;;;;4.00;3.60;;;32.40;56.80;;;;;;5002420;28;20237;-72
2023/07/15 14:36:27;;;;;;;8.40;4.47;;;32.30;56.80;;;;;;5006807;28;20742;-73
2023/07/15 14:39:15;;;;;;;8.35;3.35;;;32.20;58.90;;;;;;5000825;28;20772;-71
2023/07/15 14:42:05;;;;;;;5.30;3.20;;;32.00;56.90;;;;;;4997626;28;20247;-71
2023/07/15 14:44:55;;;;;;;6.40;3.10;;;32.20;56.70;;;;;;5002050;28;20324;-72